createdAt,value
2023-05-03T00:00:16.383Z,101588.66
2023-05-03T00:02:44.948Z,101597.78
2023-05-03T00:05:14.335Z,101610.25
2023-05-03T00:07:44.696Z,101611.22
2023-05-03T00:10:15.947Z,101623.81
2023-05-03T00:12:44.900Z,101624.88
2023-05-03T00:15:13.193Z,101621.53
2023-05-03T00:17:41.124Z,101648.19
2023-05-03T00:20:09.984Z,101675.69
2023-05-03T00:22:40.059Z,101645.88
2023-05-03T00:25:09.500Z,101659.28
2023-05-03T00:27:39.202Z,101680.69
2023-05-03T00:30:08.295Z,101686.03
2023-05-03T00:32:36.189Z,101674.75
2023-05-03T00:35:04.319Z,101684.69
2023-05-03T00:37:32.682Z,101698.94
2023-05-03T00:40:00.674Z,101689.38
2023-05-03T00:42:28.735Z,101693.91
2023-05-03T00:44:58.034Z,101681.66
2023-05-03T00:47:25.886Z,101669.41
2023-05-03T00:49:53.807Z,101682.81
2023-05-03T00:52:21.710Z,101685.69
2023-05-03T00:54:50.022Z,101698.06
2023-05-03T00:57:17.902Z,101692.97
2023-05-03T00:59:45.904Z,101712.50
2023-05-03T01:02:17.685Z,101694.16
2023-05-03T01:04:46.032Z,101726.06
2023-05-03T01:07:24.930Z,101731.50
2023-05-03T01:10:01.271Z,101759.88
2023-05-03T01:12:41.650Z,101774.13
2023-05-03T01:15:15.605Z,101799.84
2023-05-03T01:17:51.190Z,101828.09
2023-05-03T01:20:25.263Z,101817.56
2023-05-03T01:23:03.013Z,101818.53
2023-05-03T01:25:32.825Z,101825.66
2023-05-03T01:28:01.506Z,101835.44
2023-05-03T01:30:31.712Z,101840.81
2023-05-03T01:33:06.269Z,101835.59
2023-05-03T01:35:38.165Z,101855.03
2023-05-03T01:38:06.417Z,101863.88
2023-05-03T01:40:44.441Z,101855.13
2023-05-03T01:43:14.467Z,101856.94
2023-05-03T01:45:47.990Z,101849.91
2023-05-03T01:48:17.133Z,101849.06
2023-05-03T01:50:45.763Z,101882.63
2023-05-03T01:53:13.914Z,101868.56
2023-05-03T01:55:43.157Z,101876.53
2023-05-03T01:58:11.517Z,101875.69
2023-05-03T02:00:39.778Z,101884.53
2023-05-03T02:03:07.958Z,101893.38
2023-05-03T02:05:36.255Z,101900.41
2023-05-03T02:08:04.088Z,101896.06
2023-05-03T02:10:32.019Z,101904.91
2023-05-03T02:13:01.196Z,101909.34
2023-05-03T02:15:29.136Z,101923.50
2023-05-03T02:17:58.562Z,101933.22
2023-05-03T02:20:26.451Z,101933.25
2023-05-03T02:22:54.335Z,101929.75
2023-05-03T02:25:22.346Z,101956.22
2023-05-03T02:27:50.151Z,101942.16
2023-05-03T02:30:19.522Z,101964.22
2023-05-03T02:32:47.410Z,101966.88
2023-05-03T02:35:15.377Z,101985.38
2023-05-03T02:37:43.251Z,101997.75
2023-05-03T02:40:11.918Z,101996.91
2023-05-03T02:42:40.329Z,102006.63
2023-05-03T02:45:08.773Z,102019.00
2023-05-03T02:47:39.739Z,102019.00
2023-05-03T02:50:08.482Z,102015.50
2023-05-03T02:52:36.392Z,102028.75
2023-05-03T02:55:05.612Z,102012.91
2023-05-03T02:57:33.531Z,102018.22
2023-05-03T03:00:01.708Z,102027.03
2023-05-03T03:02:30.091Z,102048.22
2023-05-03T03:04:59.431Z,102057.91
2023-05-03T03:07:27.441Z,102080.81
2023-05-03T03:09:58.187Z,102093.16
2023-05-03T03:12:27.755Z,102090.50
2023-05-03T03:14:56.096Z,102094.03
2023-05-03T03:17:23.976Z,102094.91
2023-05-03T03:19:51.875Z,102089.63
2023-05-03T03:22:21.090Z,102094.91
2023-05-03T03:24:48.887Z,102124.00
2023-05-03T03:27:16.687Z,102120.47
2023-05-03T03:29:44.529Z,102145.16
2023-05-03T03:32:12.303Z,102150.44
2023-05-03T03:34:40.151Z,102150.44
2023-05-03T03:37:08.226Z,102163.66
2023-05-03T03:39:39.158Z,102175.09
2023-05-03T03:42:07.128Z,102175.09
2023-05-03T03:44:35.069Z,102169.81
2023-05-03T03:47:02.945Z,102172.44
2023-05-03T03:49:30.972Z,102191.84
2023-05-03T03:51:58.909Z,102197.13
2023-05-03T03:54:26.695Z,102199.78
2023-05-03T03:56:55.891Z,102189.19
2023-05-03T03:59:23.754Z,102183.94
2023-05-03T04:01:51.929Z,102199.78
2023-05-03T04:04:19.898Z,102197.13
2023-05-03T04:06:47.986Z,102198.91
2023-05-03T04:09:17.698Z,102210.38
2023-05-03T04:11:46.208Z,102222.72
2023-05-03T04:14:15.458Z,102209.50
2023-05-03T04:16:43.482Z,102202.44
2023-05-03T04:19:11.420Z,102220.06
2023-05-03T04:21:39.212Z,102207.75
2023-05-03T04:24:09.999Z,102205.97
2023-05-03T04:26:38.097Z,102205.06
2023-05-03T04:29:06.256Z,102175.09
2023-05-03T04:31:35.742Z,102196.25
2023-05-03T04:34:03.544Z,102193.59
2023-05-03T04:36:31.431Z,102157.41
2023-05-03T04:38:59.578Z,102171.53
2023-05-03T04:41:27.350Z,102200.63
2023-05-03T04:43:55.392Z,102182.97
2023-05-03T04:46:23.371Z,102157.38
2023-05-03T04:48:52.649Z,102189.09
2023-05-03T04:51:23.661Z,102204.06
2023-05-03T04:53:51.612Z,102263.09
2023-05-03T04:56:20.532Z,102288.53
2023-05-03T04:58:48.411Z,102279.25
2023-05-03T05:01:16.493Z,102255.53
2023-05-03T05:03:44.515Z,102138.56
2023-05-03T05:06:13.731Z,102065.28
2023-05-03T05:08:41.475Z,102064.72
2023-05-03T05:11:09.356Z,101933.38
2023-05-03T05:13:37.389Z,102029.19
2023-05-03T05:16:05.583Z,101990.84
2023-05-03T05:18:35.637Z,101932.41
2023-05-03T05:21:03.563Z,101831.69
2023-05-03T05:23:32.877Z,101709.63
2023-05-03T05:26:01.164Z,101776.13
2023-05-03T05:28:29.247Z,101503.78
2023-05-03T05:30:57.424Z,101923.94
2023-05-03T05:33:25.535Z,101732.34
2023-05-03T05:35:53.423Z,101724.72
2023-05-03T05:38:21.285Z,101770.63
2023-05-03T05:40:50.518Z,101670.41
2023-05-03T05:43:18.779Z,101723.31
2023-05-03T05:45:46.654Z,101545.00
2023-05-03T05:48:15.604Z,101735.78
2023-05-03T05:50:43.512Z,101862.81
2023-05-03T05:53:11.317Z,101681.16
2023-05-03T05:55:39.140Z,101657.53
2023-05-03T05:58:08.362Z,101811.56
2023-05-03T06:00:36.236Z,101593.97
2023-05-03T06:03:04.204Z,101598.91
2023-05-03T06:05:32.423Z,101642.34
2023-05-03T06:08:00.416Z,101701.28
2023-05-03T06:10:28.258Z,101488.75
2023-05-03T06:12:56.136Z,101479.19
2023-05-03T06:15:25.542Z,101498.28
2023-05-03T06:17:53.422Z,101701.25
2023-05-03T06:20:21.351Z,101509.16
2023-05-03T06:22:49.246Z,101737.25
2023-05-03T06:25:18.145Z,101695.31
2023-05-03T06:27:46.234Z,101590.06
2023-05-03T06:30:15.026Z,101775.00
2023-05-03T06:32:44.476Z,101733.50
2023-05-03T06:35:12.584Z,101691.84
2023-05-03T06:37:40.558Z,101730.72
2023-05-03T06:40:09.507Z,101444.34
2023-05-03T06:42:37.422Z,101538.16
2023-05-03T06:45:06.022Z,101711.16
2023-05-03T06:47:33.963Z,101759.00
2023-05-03T06:50:03.527Z,101489.47
2023-05-03T06:52:31.602Z,101395.41
2023-05-03T06:55:04.006Z,101481.72
2023-05-03T06:57:32.141Z,101528.59
2023-05-03T07:00:00.241Z,101488.72
2023-05-03T07:02:28.204Z,101761.47
2023-05-03T07:04:56.073Z,101720.97
2023-05-03T07:07:25.291Z,101757.84
2023-05-03T07:09:53.163Z,101442.28
2023-05-03T07:12:21.110Z,101729.81
2023-05-03T07:14:49.059Z,101574.78
2023-05-03T07:17:16.864Z,101379.00
2023-05-03T07:19:44.939Z,101360.31
2023-05-03T07:22:13.209Z,101745.97
2023-05-03T07:24:45.514Z,101731.56
2023-05-03T07:27:15.496Z,101665.75
2023-05-03T07:29:43.340Z,101576.63
2023-05-03T07:32:12.205Z,101226.84
2023-05-03T07:34:40.056Z,101364.28
2023-05-03T07:37:07.834Z,101298.81
2023-05-03T07:39:36.449Z,101188.59
2023-05-03T07:42:05.767Z,101644.69
2023-05-03T07:44:33.616Z,101394.03
2023-05-03T07:47:01.494Z,101289.28
2023-05-03T07:49:29.716Z,101163.88
2023-05-03T07:51:57.602Z,101465.13
2023-05-03T07:54:25.378Z,101493.94
2023-05-03T07:56:56.890Z,101792.06
2023-05-03T07:59:26.164Z,101584.56
2023-05-03T08:01:54.055Z,101475.53
2023-05-03T08:04:22.236Z,101583.91
2023-05-03T08:06:50.819Z,101155.00
2023-05-03T08:09:18.800Z,101133.47
2023-05-03T08:11:46.695Z,101249.13
2023-05-03T08:14:14.549Z,101257.19
2023-05-03T08:16:43.912Z,101233.72
2023-05-03T08:19:11.978Z,101510.91
2023-05-03T08:21:40.072Z,101704.19
2023-05-03T08:24:08.453Z,101788.56
2023-05-03T08:26:36.732Z,101640.19
2023-05-03T08:29:04.610Z,101319.31
2023-05-03T08:31:32.508Z,101213.31
2023-05-03T08:34:02.131Z,101440.16
2023-05-03T08:36:30.060Z,101292.72
2023-05-03T08:38:58.074Z,101436.34
2023-05-03T08:41:30.892Z,101425.66
2023-05-03T08:44:00.347Z,101436.78
2023-05-03T08:46:29.599Z,101366.44
2023-05-03T08:48:57.721Z,101318.22
2023-05-03T08:51:27.791Z,101475.72
2023-05-03T08:53:55.616Z,101440.88
2023-05-03T08:56:30.137Z,101388.94
2023-05-03T08:59:02.895Z,101536.34
2023-05-03T09:01:31.199Z,101374.75
2023-05-03T09:03:59.127Z,101589.25
2023-05-03T09:06:28.587Z,101648.53
2023-05-03T09:08:56.889Z,101601.94
2023-05-03T09:11:26.218Z,101500.19
2023-05-03T09:13:54.308Z,101203.75
2023-05-03T09:16:27.418Z,101419.91
2023-05-03T09:19:00.461Z,101638.31
2023-05-03T09:21:31.495Z,101564.88
2023-05-03T09:24:00.185Z,101473.00
2023-05-03T09:26:32.232Z,101776.34
2023-05-03T09:29:01.379Z,101513.56
2023-05-03T09:31:33.488Z,101392.81
2023-05-03T09:34:02.155Z,101464.66
2023-05-03T09:36:47.537Z,101388.47
2023-05-03T09:39:17.790Z,101286.50
2023-05-03T09:41:46.009Z,101300.47
2023-05-03T09:44:13.972Z,101562.81
2023-05-03T09:47:02.317Z,101280.00
2023-05-03T09:49:32.189Z,101298.13
2023-05-03T09:52:02.959Z,101491.69
2023-05-03T09:54:32.207Z,101440.81
2023-05-03T09:57:04.720Z,101554.38
2023-05-03T09:59:38.774Z,101650.31
2023-05-03T10:02:09.465Z,101731.63
2023-05-03T10:04:43.416Z,101482.09
2023-05-03T10:07:15.887Z,101474.53
2023-05-03T10:09:45.562Z,101507.41
2023-05-03T10:12:17.168Z,101594.03
2023-05-03T10:14:48.091Z,101450.81
2023-05-03T10:17:19.637Z,101255.78
2023-05-03T10:19:53.929Z,101443.56
2023-05-03T10:22:23.545Z,101408.16
2023-05-03T10:25:11.052Z,101639.38
2023-05-03T10:27:43.735Z,101533.03
2023-05-03T10:30:29.320Z,101525.22
2023-05-03T10:32:57.234Z,101702.47
2023-05-03T10:35:28.942Z,101427.72
2023-05-03T10:37:58.654Z,101564.38
2023-05-03T10:40:43.200Z,101474.97
2023-05-03T10:43:46.862Z,101561.91
2023-05-03T10:46:36.452Z,101567.88
2023-05-03T10:49:21.297Z,101559.81
2023-05-03T10:51:49.602Z,101538.06
2023-05-03T10:54:20.280Z,101719.53
2023-05-03T10:56:53.354Z,101491.44
2023-05-03T10:59:22.240Z,101430.44
2023-05-03T11:01:52.451Z,101435.41
2023-05-03T11:04:31.924Z,101367.31
2023-05-03T11:07:00.360Z,101365.97
2023-05-03T11:09:40.735Z,101211.78
2023-05-03T11:12:09.601Z,101045.59
2023-05-03T11:14:39.761Z,101145.16
2023-05-03T11:17:07.823Z,101075.47
2023-05-03T11:19:35.890Z,101021.56
2023-05-03T11:22:03.810Z,101241.28
2023-05-03T11:24:31.732Z,101239.13
2023-05-03T11:27:08.076Z,101372.91
2023-05-03T11:29:37.976Z,101223.13
2023-05-03T11:32:09.414Z,101314.53
2023-05-03T11:34:37.478Z,101461.59
2023-05-03T11:37:05.400Z,101460.88
2023-05-03T11:39:34.086Z,101352.38
2023-05-03T11:42:04.724Z,101180.50
2023-05-03T11:44:32.934Z,101247.59
2023-05-03T11:47:01.718Z,101160.09
2023-05-03T11:49:34.036Z,101163.47
2023-05-03T11:52:02.409Z,101289.16
2023-05-03T11:54:31.224Z,101191.78
2023-05-03T11:57:00.769Z,101108.53
2023-05-03T11:59:41.065Z,101165.03
2023-05-03T12:02:11.276Z,101274.78
2023-05-03T12:04:42.683Z,101435.91
2023-05-03T12:07:15.176Z,101383.34
2023-05-03T12:09:53.239Z,101328.25
2023-05-03T12:12:32.469Z,101324.69
2023-05-03T12:15:07.751Z,101257.13
2023-05-03T12:17:38.241Z,101368.25
2023-05-03T12:21:04.949Z,101280.38
2023-05-03T12:23:09.590Z,101361.09
2023-05-03T12:25:39.733Z,101283.47
2023-05-03T12:30:41.049Z,101329.97
2023-05-03T12:33:10.277Z,101330.03
2023-05-03T12:35:40.867Z,101131.53
2023-05-03T12:38:10.368Z,101254.84
2023-05-03T12:40:40.810Z,101335.81
2023-05-03T12:43:08.869Z,101315.56
2023-05-03T12:45:40.123Z,101257.06
2023-05-03T12:48:10.458Z,101307.69
2023-05-03T12:50:39.648Z,101196.53
2023-05-03T12:53:10.203Z,101271.78
2023-05-03T12:55:42.481Z,101299.63
2023-05-03T13:01:03.245Z,101226.22
2023-05-03T13:03:43.034Z,101183.34
2023-05-03T13:06:14.524Z,101204.97
2023-05-03T13:11:19.595Z,101217.25
2023-05-03T13:13:47.885Z,101184.81
2023-05-03T13:16:16.067Z,101257.75
2023-05-03T13:18:45.494Z,101229.13
2023-05-03T13:21:13.657Z,101258.16
2023-05-03T13:23:45.665Z,101241.16
2023-05-03T13:26:15.297Z,101136.84
2023-05-03T13:28:46.594Z,101205.50
2023-05-03T13:31:20.989Z,101185.16
2023-05-03T13:33:53.975Z,101196.69
2023-05-03T13:36:22.732Z,101125.34
2023-05-03T13:38:51.819Z,101208.69
2023-05-03T13:41:20.103Z,101093.69
2023-05-03T13:43:48.556Z,101103.94
2023-05-03T13:46:16.767Z,101250.31
2023-05-03T13:48:45.139Z,101273.22
2023-05-03T13:51:15.062Z,101344.22
2023-05-03T13:53:44.390Z,101326.09
2023-05-03T13:56:12.222Z,101216.22
2023-05-03T13:58:41.137Z,101279.06
2023-05-03T14:01:09.572Z,101308.31
2023-05-03T14:03:38.807Z,101313.16
2023-05-03T14:06:08.312Z,101318.19
2023-05-03T14:08:37.598Z,101306.25
2023-05-03T14:11:06.481Z,101254.75
2023-05-03T14:13:47.532Z,101229.56
2023-05-03T14:18:55.744Z,101269.34
2023-05-03T14:21:24.289Z,101191.97
2023-05-03T14:23:55.743Z,101217.50
2023-05-03T14:26:26.115Z,101218.19
2023-05-03T14:28:54.005Z,101227.00
2023-05-03T14:31:21.967Z,101257.03
2023-05-03T14:33:49.823Z,101202.06
2023-05-03T14:36:17.977Z,101167.28
2023-05-03T14:38:46.435Z,101287.47
2023-05-03T14:41:15.751Z,101216.97
2023-05-03T14:43:43.686Z,101167.63
2023-05-03T14:46:11.700Z,101178.13
2023-05-03T14:48:39.746Z,101107.28
2023-05-03T14:51:08.037Z,101206.38
2023-05-03T14:53:36.077Z,101228.81
2023-05-03T14:56:04.235Z,101222.38
2023-05-03T14:58:34.085Z,101192.09
2023-05-03T15:01:03.766Z,101224.47
2023-05-03T15:03:31.804Z,101266.97
2023-05-03T15:06:02.984Z,101271.78
2023-05-03T15:08:31.472Z,101276.13
2023-05-03T15:11:03.575Z,101215.44
2023-05-03T15:13:31.771Z,101274.75
2023-05-03T15:16:01.022Z,101250.81
2023-05-03T15:18:28.930Z,101226.91
2023-05-03T15:20:57.328Z,101227.56
2023-05-03T15:23:25.260Z,101208.66
2023-05-03T15:25:53.094Z,101215.69
2023-05-03T15:28:21.098Z,101245.94
2023-05-03T15:30:50.800Z,101255.66
2023-05-03T15:33:20.511Z,101237.69
2023-05-03T15:35:48.368Z,101241.50
2023-05-03T15:38:17.796Z,101217.44
2023-05-03T15:40:48.482Z,101156.31
2023-05-03T15:43:17.744Z,101202.00
2023-05-03T15:45:45.628Z,101185.88
2023-05-03T15:48:13.540Z,101222.72
2023-05-03T15:50:42.822Z,101282.22
2023-05-03T15:53:10.899Z,101237.28
2023-05-03T15:55:38.759Z,101214.03
2023-05-03T15:58:07.483Z,101216.66
2023-05-03T16:00:35.508Z,101197.59
2023-05-03T16:03:03.445Z,101232.53
2023-05-03T16:05:31.795Z,101195.19
2023-05-03T16:08:01.210Z,101252.53
2023-05-03T16:10:34.621Z,101173.94
2023-05-03T16:13:02.613Z,101155.66
2023-05-03T16:15:31.139Z,101186.00
2023-05-03T16:17:59.166Z,101173.72
2023-05-03T16:20:27.189Z,101194.44
2023-05-03T16:22:54.959Z,101211.16
2023-05-03T16:25:24.143Z,101199.25
2023-05-03T16:27:52.046Z,101243.91
2023-05-03T16:30:19.850Z,101296.28
2023-05-03T16:32:48.255Z,101287.09
2023-05-03T16:35:16.174Z,101257.53
2023-05-03T16:37:52.062Z,101231.28
2023-05-03T16:40:24.376Z,101219.56
2023-05-03T16:42:53.090Z,101237.59
2023-05-03T16:45:21.014Z,101221.53
2023-05-03T16:47:49.300Z,101246.50
2023-05-03T16:50:18.510Z,101256.25
2023-05-03T16:52:46.583Z,101231.59
2023-05-03T16:55:14.636Z,101284.91
2023-05-03T16:57:44.311Z,101234.47
2023-05-03T17:00:13.980Z,101277.34
2023-05-03T17:02:44.862Z,101256.22
2023-05-03T17:05:13.656Z,101253.88
2023-05-03T17:07:42.399Z,101237.63
2023-05-03T17:10:12.062Z,101231.50
2023-05-03T17:12:41.421Z,101233.50
2023-05-03T17:15:11.825Z,101240.84
2023-05-03T17:17:40.355Z,101251.84
2023-05-03T17:20:10.705Z,101266.56
2023-05-03T17:22:39.327Z,101279.16
2023-05-03T17:25:08.739Z,101275.75
2023-05-03T17:27:37.338Z,101284.06
2023-05-03T17:30:06.648Z,101254.84
2023-05-03T17:32:36.637Z,101267.41
2023-05-03T17:35:04.874Z,101270.34
2023-05-03T17:37:32.940Z,101282.38
2023-05-03T17:40:05.616Z,101275.44
2023-05-03T17:42:34.117Z,101276.53
2023-05-03T17:45:02.744Z,101294.88
2023-05-03T17:47:30.963Z,101317.59
2023-05-03T17:50:00.397Z,101316.19
2023-05-03T17:52:28.215Z,101296.84
2023-05-03T17:54:56.693Z,101295.84
2023-05-03T17:57:24.599Z,101306.09
2023-05-03T17:59:54.506Z,101326.91
2023-05-03T18:02:22.835Z,101356.84
2023-05-03T18:04:50.878Z,101374.25
2023-05-03T18:07:20.226Z,101362.09
2023-05-03T18:09:48.487Z,101371.34
2023-05-03T18:12:16.694Z,101371.66
2023-05-03T18:14:45.051Z,101360.38
2023-05-03T18:17:13.149Z,101345.66
2023-05-03T18:19:45.176Z,101369.19
2023-05-03T18:22:13.720Z,101376.81
2023-05-03T18:24:43.258Z,101399.59
2023-05-03T18:27:24.348Z,101412.59
2023-05-03T18:29:52.594Z,101429.00
2023-05-03T18:32:20.733Z,101446.41
2023-05-03T18:34:48.657Z,101460.19
2023-05-03T18:37:16.958Z,101471.34
2023-05-03T18:39:46.408Z,101478.13
2023-05-03T18:42:15.540Z,101483.94
2023-05-03T18:44:44.454Z,101497.75
2023-05-03T18:47:13.580Z,101531.94
2023-05-03T18:49:41.819Z,101537.66
2023-05-03T18:52:10.480Z,101567.38
2023-05-03T18:54:38.398Z,101597.09
2023-05-03T18:57:07.866Z,101635.03
2023-05-03T18:59:42.744Z,101716.56
2023-05-03T19:02:16.858Z,101755.22
2023-05-03T19:04:44.907Z,101769.91
2023-05-03T19:07:12.722Z,101821.81
2023-05-03T19:09:40.860Z,101838.91
2023-05-03T19:12:11.154Z,101848.03
2023-05-03T19:14:41.122Z,101851.91
2023-05-03T19:17:09.293Z,101863.78
2023-05-03T19:19:37.155Z,101847.13
2023-05-03T19:22:05.462Z,101847.47
2023-05-03T19:24:33.396Z,101861.06
2023-05-03T19:27:01.317Z,101865.81
2023-05-03T19:29:31.066Z,101891.09
2023-05-03T19:31:58.888Z,101924.28
2023-05-03T19:34:27.951Z,101936.25
2023-05-03T19:36:55.854Z,101956.06
2023-05-03T19:39:23.821Z,101943.84
2023-05-03T19:41:53.048Z,101942.13
2023-05-03T19:44:20.990Z,101927.53
2023-05-03T19:46:51.484Z,101910.53
2023-05-03T19:49:19.214Z,101949.81
2023-05-03T19:51:47.330Z,101985.38
2023-05-03T19:54:15.298Z,101977.59
2023-05-03T19:56:43.226Z,101964.34
2023-05-03T19:59:11.479Z,101988.19
2023-05-03T20:01:39.438Z,101976.78
2023-05-03T20:04:09.292Z,102002.47
2023-05-03T20:06:37.379Z,102017.50
2023-05-03T20:09:05.399Z,102014.81
2023-05-03T20:11:33.207Z,102032.41
2023-05-03T20:14:01.284Z,102045.66
2023-05-03T20:16:33.320Z,102055.31
2023-05-03T20:19:01.278Z,102024.50
2023-05-03T20:21:30.558Z,101995.41
2023-05-03T20:23:58.454Z,102001.00
2023-05-03T20:26:26.532Z,101985.34
2023-05-03T20:28:54.326Z,101982.88
2023-05-03T20:31:22.468Z,101986.63
2023-05-03T20:33:50.501Z,102001.84
2023-05-03T20:36:18.362Z,102038.22
2023-05-03T20:38:47.573Z,102054.97
2023-05-03T20:41:15.544Z,102032.59
2023-05-03T20:43:43.406Z,102021.03
2023-05-03T20:46:11.837Z,102014.88
2023-05-03T20:48:39.688Z,102004.19
2023-05-03T20:51:09.388Z,102005.19
2023-05-03T20:53:37.376Z,102008.81
2023-05-03T20:56:07.925Z,102030.16
2023-05-03T20:58:36.319Z,102030.16
2023-05-03T21:01:05.481Z,102028.50
2023-05-03T21:03:33.605Z,102035.78
2023-05-03T21:06:01.604Z,102057.94
2023-05-03T21:08:29.551Z,102069.47
2023-05-03T21:10:57.553Z,102084.34
2023-05-03T21:13:26.884Z,102057.94
2023-05-03T21:15:55.994Z,102066.03
2023-05-03T21:18:26.048Z,102090.75
2023-05-03T21:20:54.580Z,102067.75
2023-05-03T21:23:22.554Z,102078.47
2023-05-03T21:25:51.563Z,102091.72
2023-05-03T21:28:20.416Z,102088.81
2023-05-03T21:30:49.698Z,102061.28
2023-05-03T21:33:17.629Z,102044.34
2023-05-03T21:35:45.511Z,102041.72
2023-05-03T21:38:13.439Z,102039.94
2023-05-03T21:40:41.274Z,102038.16
2023-05-03T21:43:09.933Z,102031.94
2023-05-03T21:45:37.800Z,102034.53
2023-05-03T21:48:07.274Z,102026.66
2023-05-03T21:50:38.332Z,102022.28
2023-05-03T21:53:06.889Z,102031.25
2023-05-03T21:55:35.009Z,102026.16
2023-05-03T21:58:02.916Z,102044.91
2023-05-03T22:00:31.794Z,102056.59
2023-05-03T22:02:59.730Z,102077.97
2023-05-03T22:05:29.146Z,102088.63
2023-05-03T22:07:56.953Z,102094.91
2023-05-03T22:10:24.855Z,102100.34
2023-05-03T22:12:52.772Z,102120.72
2023-05-03T22:15:20.874Z,102106.56
2023-05-03T22:17:48.850Z,102115.50
2023-05-03T22:20:17.473Z,102127.81
2023-05-03T22:22:46.846Z,102119.78
2023-05-03T22:25:24.272Z,102122.50
2023-05-03T22:27:52.234Z,102126.03
2023-05-03T22:30:21.655Z,102128.63
2023-05-03T22:32:49.701Z,102130.41
2023-05-03T22:35:17.881Z,102154.25
2023-05-03T22:37:47.305Z,102148.94
2023-05-03T22:40:15.272Z,102148.94
2023-05-03T22:42:43.375Z,102156.09
2023-05-03T22:45:11.885Z,102153.50
2023-05-03T22:47:39.882Z,102157.94
2023-05-03T22:50:09.800Z,102163.25
2023-05-03T22:52:37.845Z,102165.09
2023-05-03T22:55:09.100Z,102160.69
2023-05-03T22:57:37.042Z,102188.16
2023-05-03T23:00:06.644Z,102196.91
2023-05-03T23:02:34.745Z,102178.41
2023-05-03T23:05:02.967Z,102189.03
2023-05-03T23:07:30.996Z,102195.25
2023-05-03T23:10:02.965Z,102199.69
2023-05-03T23:12:32.524Z,102207.66
2023-05-03T23:15:00.486Z,102189.16
2023-05-03T23:17:28.355Z,102182.16
2023-05-03T23:19:56.269Z,102208.69
2023-05-03T23:22:25.273Z,102204.31
2023-05-03T23:24:53.304Z,102209.66
2023-05-03T23:27:21.330Z,102206.13
2023-05-03T23:29:52.045Z,102214.03
2023-05-03T23:32:20.667Z,102212.31
2023-05-03T23:34:49.023Z,102217.56
2023-05-03T23:37:17.028Z,102205.22
2023-05-03T23:39:45.545Z,102205.22
2023-05-03T23:42:14.011Z,102192.88
2023-05-03T23:44:50.892Z,102194.66
2023-05-03T23:47:23.553Z,102206.16
2023-05-03T23:49:51.993Z,102193.81
2023-05-03T23:52:20.452Z,102196.47
2023-05-03T23:54:48.490Z,102199.16
2023-05-03T23:57:16.353Z,102204.47
2023-05-03T23:59:44.297Z,102211.53
